Terminal Aerodrome Forecast
Issued by NWS Cleveland, OH

Home | Current Version | Previous Version | Graphics & Text | Print | Product List | Glossary On
Versions: 1 2 3 4 5 6 7 8 9 10 11 12 13 14 15 16 17 18 19 20 21 22 23 24 25 26
000
FTUS41 KCLE 202300
TAFCLE
TAF
KCLE 202330Z 2100/2206 VRB04KT P6SM SCT250
     FM211000 00000KT 5SM BR SCT250
     FM211300 00000KT P6SM SCT250
     FM211600 36006KT P6SM SCT035=

USA.gov is the U.S. government's official web portal to all federal, state and local government web resources and services.